Flight Track Log - Related Links

Times and Time Zones

All times are in EDT time to prevent confusion due to time zone crossing. See the AAL1805 flight status page for this flight to view local times or setup timezone preferences in your user account.

Time Position Orientation Groundspeed Altitude Reporting Facility
EDT Latitude Longitude Course Direction KTS MPH feet Rate Location/Type
Tue 07:12:59 PM 25.7972 -80.3161 150° Southeast 159 183 1,000  Level Miami Center
Tue 07:13:36 PM 25.7944 -80.3458 264° West 160 184 2,200 2,000 Climbing Miami Center
Tue 07:14:38 PM 25.7886 -80.4103 264° West 240 276 4,300 2,093 Climbing Miami Center
Tue 07:15:00 PM 25.5170 -80.0495 153° Southeast  Level Estimated
Tue 07:15:45 PM 25.7394 -80.4572 221° Southwest 271 312 6,700  Level Miami Center
Tue 07:16:00 PM 25.4241 -79.9696 149° Southeast  Level Estimated
Tue 07:16:46 PM 25.6606 -80.4411 170° South 277 319 7,300  Level Miami Center
Tue 07:17:00 PM 25.3312 -79.8898 90° East  Level Estimated
Tue 07:18:00 PM 25.2382 -79.8101 150° Southeast  Level Estimated
Tue 07:18:10 PM 25.5594 -80.3922 156° South 298 343 10,600  Level Miami Center
Tue 07:19:10 PM 25.5072 -80.3031 123° Southeast 304 350 13,400 3,000 Climbing Miami Center
Tue 07:20:10 PM 25.4444 -80.2092 127° Southeast 336 387 16,600 2,750 Climbing Miami Center
Tue 07:21:10 PM 25.3797 -80.1133 127° Southeast 369 425 18,900 2,500 Climbing Miami Center
Tue 07:22:10 PM 25.3069 -80.0078 127° Southeast 400 460 21,600 2,600 Climbing Miami Center
Tue 07:23:10 PM 25.2147 -79.9275 142° Southeast 412 474 24,100 2,350 Climbing Miami Center
Tue 07:24:10 PM 25.1136 -79.8539 147° Southeast 423 487 26,300 2,150 Climbing Miami Center
Tue 07:25:10 PM 25.0108 -79.7803 147° Southeast 437 503 28,400 1,850 Climbing Miami Center
Tue 07:26:10 PM 24.9056 -79.7067 148° Southeast 443 510 30,000 1,750 Climbing Miami Center
Tue 07:27:10 PM 24.7942 -79.6308 148° Southeast 457 526 31,900 2,200 Climbing Miami Center
Tue 07:28:10 PM 24.6892 -79.5531 146° Southeast 457 526 34,400 1,550 Climbing Miami Center
Tue 07:29:10 PM 24.5858 -79.4822 148° Southeast 452 520 35,000 350 Climbing Miami Center
Tue 07:30:10 PM 24.4847 -79.4117 148° Southeast 447 514 35,100 850 Climbing Miami Center
Tue 07:31:10 PM 24.3814 -79.3389 147° Southeast 441 507 36,700 950 Climbing Miami Center
Tue 07:32:10 PM 24.2803 -79.2683 148° Southeast 436 502 37,000 150 Climbing Miami Center
Tue 07:33:10 PM 24.1789 -79.1981 148° Southeast 436 502 37,000  Level Miami Center
Tue 07:34:10 PM 24.0797 -79.1281 147° Southeast 425 489 37,000  Level Miami Center
Tue 07:35:10 PM 23.9764 -79.0558 147° Southeast 425 489 37,000  Level Miami Center
Tue 07:37:00 PM 23.8132 -78.9149 142° Southeast  Level FlightAware Approximate
Tue 07:44:00 PM 23.1890 -78.3800 142° Southeast  Level FlightAware Approximate
Tue 07:45:00 PM 23.0997 -78.3039 142° Southeast  Level FlightAware Approximate
Tue 07:46:00 PM 23.0104 -78.2280 142° Southeast  Level FlightAware Approximate
Tue 07:47:00 PM 22.9210 -78.1522 142° Southeast  Level FlightAware Approximate
Tue 07:48:00 PM 22.8316 -78.0765 142° Southeast  Level FlightAware Approximate
Tue 07:49:00 PM 22.7421 -78.0009 142° Southeast  Level FlightAware Approximate
Tue 07:50:00 PM 22.6526 -77.9254 142° Southeast  Level FlightAware Approximate
Tue 07:51:00 PM 22.5631 -77.8500 142° Southeast  Level FlightAware Approximate
Tue 07:52:00 PM 22.4735 -77.7747 142° Southeast  Level FlightAware Approximate
Tue 07:53:00 PM 22.3839 -77.6995 142° Southeast  Level FlightAware Approximate
Tue 07:54:00 PM 22.2943 -77.6244 142° Southeast  Level FlightAware Approximate
Tue 07:55:00 PM 22.2046 -77.5493 142° Southeast  Level FlightAware Approximate
Tue 07:56:00 PM 22.1149 -77.4744 142° Southeast  Level FlightAware Approximate
Tue 07:57:00 PM 22.0252 -77.3996 142° Southeast  Level FlightAware Approximate
Tue 07:58:00 PM 21.9354 -77.3248 142° Southeast  Level FlightAware Approximate
Tue 07:59:00 PM 21.8456 -77.2502 142° Southeast  Level FlightAware Approximate
Tue 08:00:00 PM 21.7557 -77.1756 142° Southeast  Level FlightAware Approximate
Tue 08:01:00 PM 21.6659 -77.1012 142° Southeast  Level FlightAware Approximate
Tue 08:02:00 PM 21.5760 -77.0268 142° Southeast  Level FlightAware Approximate
Tue 08:03:00 PM 21.4860 -76.9526 142° Southeast  Level FlightAware Approximate
Tue 08:04:00 PM 21.3960 -76.8784 142° Southeast  Level FlightAware Approximate
Tue 08:05:00 PM 21.3060 -76.8043 143° Southeast  Level FlightAware Approximate
Tue 08:06:00 PM 21.2160 -76.7303 143° Southeast  Level FlightAware Approximate
Tue 08:07:00 PM 21.1259 -76.6564 143° Southeast  Level FlightAware Approximate
Tue 08:08:00 PM 21.0358 -76.5826 143° Southeast  Level FlightAware Approximate
Tue 08:09:00 PM 20.9457 -76.5089 143° Southeast  Level FlightAware Approximate
Tue 08:10:00 PM 20.8555 -76.4352 143° Southeast  Level FlightAware Approximate
Tue 08:11:00 PM 20.7653 -76.3617 143° Southeast  Level FlightAware Approximate
Tue 08:12:00 PM 20.6751 -76.2882 143° Southeast  Level FlightAware Approximate
Tue 08:13:00 PM 20.5848 -76.2148 143° Southeast  Level FlightAware Approximate
Tue 08:14:00 PM 20.4945 -76.1415 143° Southeast  Level FlightAware Approximate
Tue 08:15:00 PM 20.4042 -76.0683 143° Southeast  Level FlightAware Approximate
Tue 08:16:00 PM 20.3139 -75.9952 143° Southeast  Level FlightAware Approximate
Tue 08:17:00 PM 20.2235 -75.9222 143° Southeast  Level FlightAware Approximate
Tue 08:18:00 PM 20.1331 -75.8493 143° Southeast  Level FlightAware Approximate
Tue 08:19:00 PM 20.0426 -75.7764 143° Southeast  Level FlightAware Approximate
Tue 08:20:00 PM 19.9522 -75.7036 143° Southeast  Level FlightAware Approximate
Tue 08:21:00 PM 19.8617 -75.6309 143° Southeast  Level FlightAware Approximate
Tue 08:22:00 PM 19.7711 -75.5583 143° Southeast  Level FlightAware Approximate
Tue 08:23:00 PM 19.6806 -75.4858 143° Southeast  Level FlightAware Approximate
Tue 08:24:00 PM 19.5900 -75.4133 143° Southeast  Level FlightAware Approximate
Tue 08:25:00 PM 19.4994 -75.3410 143° Southeast  Level FlightAware Approximate
Tue 08:26:00 PM 19.4087 -75.2687 143° Southeast  Level FlightAware Approximate
Tue 08:27:00 PM 19.3181 -75.1965 143° Southeast  Level FlightAware Approximate
Tue 08:28:00 PM 19.2274 -75.1244 143° Southeast  Level FlightAware Approximate
Tue 08:29:00 PM 19.1366 -75.0523 143° Southeast  Level FlightAware Approximate
Tue 08:30:00 PM 19.0459 -74.9804 143° Southeast  Level FlightAware Approximate
Tue 08:31:00 PM 18.9551 -74.9085 143° Southeast  Level FlightAware Approximate
Tue 08:32:00 PM 18.8643 -74.8367 143° Southeast  Level FlightAware Approximate
Tue 08:33:00 PM 18.7734 -74.7650 143° Southeast  Level FlightAware Approximate
Tue 08:34:00 PM 18.6824 -74.6934 143° Southeast  Level FlightAware Approximate
Tue 08:35:00 PM 18.5913 -74.6221 143° Southeast  Level FlightAware Approximate
Tue 08:36:00 PM 18.5002 -74.5509 143° Southeast  Level FlightAware Approximate
Tue 08:37:00 PM 18.4090 -74.4798 143° Southeast  Level FlightAware Approximate
Tue 08:38:00 PM 18.3179 -74.4087 143° Southeast  Level FlightAware Approximate
Tue 08:39:00 PM 18.2267 -74.3377 144° Southeast  Level FlightAware Approximate
Tue 08:40:00 PM 18.1354 -74.2668 144° Southeast  Level FlightAware Approximate
Tue 08:41:00 PM 18.0442 -74.1959 144° Southeast  Level FlightAware Approximate
Tue 08:42:00 PM 17.9529 -74.1252 144° Southeast  Level FlightAware Approximate
Tue 08:43:00 PM 17.8616 -74.0545 144° Southeast  Level FlightAware Approximate
Tue 08:44:00 PM 17.7703 -73.9838 144° Southeast  Level FlightAware Approximate
Tue 08:45:00 PM 17.6790 -73.9132 143° Southeast  Level FlightAware Approximate
Tue 08:46:00 PM 17.5888 -73.8410 143° Southeast  Level FlightAware Approximate
Tue 08:47:00 PM 17.4986 -73.7689 143° Southeast  Level FlightAware Approximate
Tue 08:48:00 PM 17.4084 -73.6968 143° Southeast  Level FlightAware Approximate
Tue 08:49:00 PM 17.3182 -73.6248 143° Southeast  Level FlightAware Approximate
Tue 08:50:00 PM 17.2279 -73.5529 143° Southeast  Level FlightAware Approximate
Tue 08:51:00 PM 17.1377 -73.4811 143° Southeast  Level FlightAware Approximate
Tue 08:52:00 PM 17.0473 -73.4093 143° Southeast  Level FlightAware Approximate
Tue 08:53:00 PM 16.9570 -73.3376 143° Southeast  Level FlightAware Approximate
Tue 08:54:00 PM 16.8666 -73.2660 143° Southeast  Level FlightAware Approximate
Tue 08:55:00 PM 16.7759 -73.1946 145° Southeast  Level FlightAware Approximate
Tue 08:56:00 PM 16.6828 -73.1267 145° Southeast  Level FlightAware Approximate
Tue 08:57:00 PM 16.5897 -73.0589 145° Southeast  Level FlightAware Approximate
Tue 08:58:00 PM 16.4965 -72.9911 145° Southeast  Level FlightAware Approximate
Tue 08:59:00 PM 16.4034 -72.9234 145° Southeast  Level FlightAware Approximate
Tue 09:00:00 PM 16.3102 -72.8557 145° Southeast  Level FlightAware Approximate
Tue 09:01:00 PM 16.2174 -72.7875 143° Southeast  Level FlightAware Approximate
Tue 09:02:00 PM 16.1267 -72.7164 143° Southeast  Level FlightAware Approximate
Tue 09:03:00 PM 16.0359 -72.6454 143° Southeast  Level FlightAware Approximate
Tue 09:04:00 PM 15.9451 -72.5744 143° Southeast  Level FlightAware Approximate
Tue 09:05:00 PM 15.8543 -72.5036 143° Southeast  Level FlightAware Approximate
Tue 09:06:00 PM 15.7634 -72.4327 143° Southeast  Level FlightAware Approximate
Tue 09:07:00 PM 15.6723 -72.3623 144° Southeast  Level FlightAware Approximate
Tue 09:08:00 PM 15.5806 -72.2928 144° Southeast  Level FlightAware Approximate
Tue 09:09:00 PM 15.4888 -72.2233 144° Southeast  Level FlightAware Approximate
Tue 09:10:00 PM 15.3970 -72.1539 144° Southeast  Level FlightAware Approximate
Tue 09:11:00 PM 15.3053 -72.0845 144° Southeast  Level FlightAware Approximate
Tue 09:12:00 PM 15.2135 -72.0153 144° Southeast  Level FlightAware Approximate
Tue 09:13:00 PM 15.1216 -71.9460 144° Southeast  Level FlightAware Approximate
Tue 09:14:00 PM 15.0298 -71.8768 144° Southeast  Level FlightAware Approximate
Tue 09:15:00 PM 14.9379 -71.8077 144° Southeast  Level FlightAware Approximate
Tue 09:16:00 PM 14.8460 -71.7387 144° Southeast  Level FlightAware Approximate
Tue 09:17:00 PM 14.7541 -71.6697 144° Southeast  Level FlightAware Approximate
Tue 09:18:00 PM 14.6622 -71.6008 144° Southeast  Level FlightAware Approximate
Tue 09:19:00 PM 14.5708 -71.5310 143° Southeast  Level FlightAware Approximate
Tue 09:20:00 PM 14.4801 -71.4604 143° Southeast  Level FlightAware Approximate
Tue 09:21:00 PM 14.3876 -71.3924 145° Southeast  Level FlightAware Approximate
Tue 09:22:00 PM 14.2948 -71.3249 145° Southeast  Level FlightAware Approximate
Tue 09:23:00 PM 14.2020 -71.2574 145° Southeast  Level FlightAware Approximate
Tue 09:24:00 PM 14.1091 -71.1899 145° Southeast  Level FlightAware Approximate
Tue 09:25:00 PM 14.0115 -71.1313 140° Southeast  Level FlightAware Approximate
Tue 09:26:00 PM 13.9242 -71.0565 140° Southeast  Level FlightAware Approximate
Tue 09:27:00 PM 13.8280 -70.9946 149° Southeast  Level FlightAware Approximate
Tue 09:28:00 PM 13.7346 -70.9283 143° Southeast  Level FlightAware Approximate
Tue 09:29:00 PM 13.6443 -70.8574 143° Southeast  Level FlightAware Approximate
Tue 09:30:00 PM 13.5541 -70.7865 143° Southeast  Level FlightAware Approximate
Tue 09:31:00 PM 13.4624 -70.7175 144° Southeast  Level FlightAware Approximate
Tue 09:32:00 PM 13.3707 -70.6487 144° Southeast  Level FlightAware Approximate
Tue 09:33:00 PM 13.2789 -70.5799 144° Southeast  Level FlightAware Approximate
Tue 09:34:00 PM 13.1872 -70.5112 144° Southeast  Level FlightAware Approximate
Tue 09:35:00 PM 13.0933 -70.4455 147° Southeast  Level FlightAware Approximate
Tue 09:36:00 PM 12.9982 -70.3819 142° Southeast  Level FlightAware Approximate
Tue 09:37:00 PM 12.9087 -70.3102 142° Southeast  Level FlightAware Approximate
Tue 09:38:00 PM 12.8188 -70.2391 144° Southeast  Level FlightAware Approximate
Tue 09:39:00 PM 12.7271 -70.1703 144° Southeast  Level FlightAware Approximate
Tue 09:40:00 PM 12.6354 -70.1021 136° Southeast  Level FlightAware Approximate
Tue 09:41:00 PM 12.5415 -70.0374 154° Southeast  Level FlightAware Approximate
Tue 09:42:00 PM 12.5000 -70.0167 154° Southeast  Level FlightAware Approximate
Tue 09:43:00 PM 12.5014 -70.0152 154° Southeast  Level Estimated
Tue 09:44:00 PM 12.5000 -70.0167 154° Southeast  Level FlightAware Approximate
Tue 09:45:00 PM 12.5014 -70.0152 154° Southeast  Level Estimated

Login

Don't have an account? Register now (free) for customized features, flight alerts, and more!